Time;durP1;ratioP1;P1;durP2;ratioP2;P2;SDS_P1;SDS_P2;PMS_P1;PMS_P2;Temp;Humidity;BMP_temperature;BMP_pressure;BME280_temperature;BME280_humidity;BME280_pressure;Samples;Min_cycle;Max_cycle;Signal;HPM_P1;HPM_P2
2020/12/13 00:02:22;;;;;;;62.33;27.80;;;;;;;;;;4359890;32;20171;-76
2020/12/13 00:04:48;;;;;;;54.72;25.60;;;;;;;;;;4369247;32;20228;-76
2020/12/13 00:07:13;;;;;;;53.28;24.00;;;;;;;;;;4364249;32;20193;-76
2020/12/13 00:09:38;;;;;;;54.97;24.12;;;;;;;;;;4377224;32;20201;-77
2020/12/13 00:12:04;;;;;;;50.30;24.12;;;;;;;;;;4376418;32;20170;-77
2020/12/13 00:14:29;;;;;;;60.97;27.48;;;;;;;;;;4376930;32;20166;-76
2020/12/13 00:16:55;;;;;;;66.15;27.73;;;;;;;;;;4376235;32;20208;-76
2020/12/13 00:19:20;;;;;;;54.83;25.40;;;;;;;;;;4376036;32;20243;-76
2020/12/13 00:21:49;;;;;;;56.95;24.87;;;;;;;;;;4376357;32;20550;-76
2020/12/13 00:24:14;;;;;;;53.72;24.25;;;;;;;;;;4362128;32;20189;-76
2020/12/13 00:26:40;;;;;;;48.80;23.00;;;;;;;;;;4389627;32;20184;-76
2020/12/13 00:29:05;;;;;;;46.80;23.17;;;;;;;;;;4388786;32;20189;-76
2020/12/13 00:31:31;;;;;;;46.15;23.35;;;;;;;;;;4362701;32;20166;-76
2020/12/13 00:33:56;;;;;;;48.17;24.10;;;;;;;;;;4371884;32;20219;-76
2020/12/13 00:36:21;;;;;;;50.08;24.58;;;;;;;;;;4375130;32;20557;-76
2020/12/13 00:38:46;;;;;;;54.53;25.33;;;;;;;;;;4374610;32;20607;-76
2020/12/13 00:41:11;;;;;;;48.80;24.00;;;;;;;;;;4361304;32;20492;-76
2020/12/13 00:43:37;;;;;;;47.70;22.45;;;;;;;;;;4360937;32;20622;-76
2020/12/13 00:46:02;;;;;;;49.50;24.00;;;;;;;;;;4374394;32;20150;-77
2020/12/13 00:48:27;;;;;;;44.35;21.83;;;;;;;;;;4361102;32;20268;-77
2020/12/13 00:50:53;;;;;;;47.40;23.00;;;;;;;;;;4360587;32;20539;-76
2020/12/13 00:53:18;;;;;;;42.92;22.17;;;;;;;;;;4359442;32;20229;-76
2020/12/13 00:55:45;;;;;;;50.97;23.75;;;;;;;;;;4349232;32;20214;-76
2020/12/13 00:58:10;;;;;;;45.22;22.73;;;;;;;;;;4361096;32;20201;-77
2020/12/13 01:00:36;;;;;;;51.70;23.50;;;;;;;;;;4360978;32;20170;-77
2020/12/13 01:03:01;;;;;;;43.85;21.58;;;;;;;;;;4360941;32;20170;-76
2020/12/13 01:05:27;;;;;;;51.25;24.20;;;;;;;;;;4361606;32;20192;-76
2020/12/13 01:07:52;;;;;;;47.00;22.48;;;;;;;;;;4361045;32;20166;-76
2020/12/13 01:10:18;;;;;;;42.35;21.02;;;;;;;;;;4374365;32;20180;-76
2020/12/13 01:12:44;;;;;;;42.10;21.15;;;;;;;;;;4360662;32;20509;-77
2020/12/13 01:15:10;;;;;;;48.47;22.83;;;;;;;;;;4361180;32;20595;-77
2020/12/13 01:17:35;;;;;;;47.10;21.33;;;;;;;;;;4360686;32;20193;-77
2020/12/13 01:20:00;;;;;;;45.28;20.55;;;;;;;;;;4362253;32;20484;-77
2020/12/13 01:22:25;;;;;;;40.13;20.27;;;;;;;;;;4360940;32;20555;-76
2020/12/13 01:24:51;;;;;;;49.80;23.85;;;;;;;;;;4360838;32;20497;-77
2020/12/13 01:27:16;;;;;;;47.67;21.57;;;;;;;;;;4360908;32;20189;-77
2020/12/13 01:29:41;;;;;;;46.00;21.83;;;;;;;;;;4358354;33;20175;-77
2020/12/13 01:32:06;;;;;;;40.13;20.27;;;;;;;;;;4359722;32;20509;-77
2020/12/13 01:34:32;;;;;;;42.80;20.63;;;;;;;;;;4361233;32;20162;-77
2020/12/13 01:36:57;;;;;;;54.17;23.85;;;;;;;;;;4361019;32;20221;-77
2020/12/13 01:39:22;;;;;;;44.95;21.55;;;;;;;;;;4363075;32;20189;-77
2020/12/13 01:41:47;;;;;;;45.28;20.98;;;;;;;;;;4363511;32;20376;-75
2020/12/13 01:44:13;;;;;;;55.33;23.48;;;;;;;;;;4377269;32;20157;-76
2020/12/13 01:46:38;;;;;;;43.87;21.80;;;;;;;;;;4363144;32;20209;-76
2020/12/13 01:49:06;;;;;;;57.43;23.97;;;;;;;;;;4361640;32;20631;-77
2020/12/13 01:51:54;;;;;;;52.00;23.95;;;;;;;;;;4363046;32;20166;-76
2020/12/13 01:54:20;;;;;;;46.47;22.23;;;;;;;;;;4371030;32;20150;-76
2020/12/13 01:56:47;;;;;;;43.57;21.60;;;;;;;;;;4363477;32;20209;-76
2020/12/13 01:59:14;;;;;;;45.97;21.60;;;;;;;;;;4377084;32;20147;-76
2020/12/13 02:01:41;;;;;;;44.77;21.23;;;;;;;;;;4362860;32;20197;-76
2020/12/13 02:04:07;;;;;;;44.33;21.70;;;;;;;;;;4362812;32;20170;-76
2020/12/13 02:06:34;;;;;;;42.03;20.10;;;;;;;;;;4363779;32;20242;-76
2020/12/13 02:08:59;;;;;;;42.65;21.10;;;;;;;;;;4362594;32;22042;-76
2020/12/13 02:11:24;;;;;;;45.15;20.98;;;;;;;;;;4363461;32;20174;-76
2020/12/13 02:13:50;;;;;;;52.13;22.87;;;;;;;;;;4363531;32;20225;-76
2020/12/13 02:16:16;;;;;;;38.35;19.23;;;;;;;;;;4363240;32;20163;-76
2020/12/13 02:18:42;;;;;;;47.67;21.40;;;;;;;;;;4362674;32;20228;-76
2020/12/13 02:21:10;;;;;;;43.50;20.30;;;;;;;;;;4363324;32;20618;-76
2020/12/13 02:23:35;;;;;;;46.47;20.75;;;;;;;;;;4362513;32;20221;-76
2020/12/13 02:26:00;;;;;;;47.40;21.20;;;;;;;;;;4362943;32;20224;-76
2020/12/13 02:28:26;;;;;;;48.77;20.80;;;;;;;;;;4362450;32;20209;-76
2020/12/13 02:30:51;;;;;;;40.67;19.97;;;;;;;;;;4376688;32;20139;-76
2020/12/13 02:33:16;;;;;;;45.80;20.57;;;;;;;;;;4362560;32;20218;-76
2020/12/13 02:35:42;;;;;;;42.37;19.03;;;;;;;;;;4362646;32;20178;-76
2020/12/13 02:38:07;;;;;;;45.20;20.50;;;;;;;;;;4362340;32;20184;-76
2020/12/13 02:40:40;;;;;;;40.07;19.37;;;;;;;;;;4362293;32;20233;-76
2020/12/13 02:43:05;;;;;;;37.55;17.90;;;;;;;;;;4362470;32;20222;-76
2020/12/13 02:45:31;;;;;;;40.85;17.98;;;;;;;;;;4362133;32;20587;-76
2020/12/13 02:47:56;;;;;;;45.40;19.00;;;;;;;;;;4362518;32;20189;-76
2020/12/13 02:50:21;;;;;;;47.08;19.62;;;;;;;;;;4362300;32;20188;-76
2020/12/13 02:52:46;;;;;;;42.42;19.30;;;;;;;;;;4362654;32;20166;-76
2020/12/13 02:55:12;;;;;;;38.87;17.47;;;;;;;;;;4362229;32;20170;-76
2020/12/13 02:57:40;;;;;;;38.93;18.23;;;;;;;;;;4362409;32;20200;-76
2020/12/13 03:00:05;;;;;;;37.60;17.97;;;;;;;;;;4362124;32;20158;-76
2020/12/13 03:02:31;;;;;;;36.47;16.80;;;;;;;;;;4362738;32;20626;-76
2020/12/13 03:04:56;;;;;;;41.77;18.33;;;;;;;;;;4362519;32;20167;-76
2020/12/13 03:07:21;;;;;;;41.20;17.80;;;;;;;;;;4362239;32;20585;-76
2020/12/13 03:09:46;;;;;;;47.30;18.07;;;;;;;;;;4361918;32;20170;-76
2020/12/13 03:12:11;;;;;;;41.33;18.03;;;;;;;;;;4375704;32;20150;-76
2020/12/13 03:14:37;;;;;;;41.30;17.43;;;;;;;;;;4359841;32;20206;-77
2020/12/13 03:17:03;;;;;;;38.73;17.20;;;;;;;;;;4359998;32;20167;-75
2020/12/13 03:19:28;;;;;;;40.03;16.90;;;;;;;;;;4361857;32;20210;-75
2020/12/13 03:21:54;;;;;;;39.70;16.77;;;;;;;;;;4361967;32;20234;-76
2020/12/13 03:24:19;;;;;;;34.40;16.20;;;;;;;;;;4361606;32;20575;-76
2020/12/13 03:26:44;;;;;;;39.80;17.03;;;;;;;;;;4362256;32;20584;-76
2020/12/13 03:29:10;;;;;;;42.37;18.43;;;;;;;;;;4362011;32;20162;-76
2020/12/13 03:31:35;;;;;;;30.47;15.97;;;;;;;;;;4361687;32;20241;-76
2020/12/13 03:34:01;;;;;;;36.73;16.50;;;;;;;;;;4361525;32;20175;-76
2020/12/13 03:36:26;;;;;;;46.27;18.93;;;;;;;;;;4376313;32;20161;-76
2020/12/13 03:38:51;;;;;;;48.37;19.37;;;;;;;;;;4361826;32;20333;-76
2020/12/13 03:41:17;;;;;;;45.80;19.90;;;;;;;;;;4361976;32;20171;-76
2020/12/13 03:43:42;;;;;;;40.73;18.40;;;;;;;;;;4362364;32;20213;-76
2020/12/13 03:46:08;;;;;;;49.80;21.13;;;;;;;;;;4361740;32;20734;-76
2020/12/13 03:48:33;;;;;;;37.03;17.43;;;;;;;;;;4375671;32;20556;-76
2020/12/13 03:50:58;;;;;;;32.77;16.87;;;;;;;;;;4361686;32;20556;-76
2020/12/13 03:53:24;;;;;;;39.23;19.13;;;;;;;;;;4365329;32;20240;-76
2020/12/13 03:55:49;;;;;;;35.87;17.47;;;;;;;;;;4376805;32;20174;-76
2020/12/13 03:58:14;;;;;;;42.70;19.27;;;;;;;;;;4390308;32;20165;-76
2020/12/13 04:00:40;;;;;;;31.30;16.90;;;;;;;;;;4376422;32;20537;-76
2020/12/13 04:03:05;;;;;;;39.50;18.63;;;;;;;;;;4376238;32;20211;-76
2020/12/13 04:05:31;;;;;;;38.70;17.87;;;;;;;;;;4376175;32;20173;-76
2020/12/13 04:07:56;;;;;;;43.57;18.83;;;;;;;;;;4376284;32;20279;-76
2020/12/13 04:10:21;;;;;;;35.20;16.73;;;;;;;;;;4377215;32;20162;-76
2020/12/13 04:12:47;;;;;;;32.57;16.17;;;;;;;;;;4376361;32;20181;-76
2020/12/13 04:15:13;;;;;;;32.88;16.33;;;;;;;;;;4390375;32;20165;-76
2020/12/13 04:17:38;;;;;;;32.97;15.57;;;;;;;;;;4376313;32;20201;-76
2020/12/13 04:20:05;;;;;;;30.58;14.75;;;;;;;;;;4376471;32;20178;-76
2020/12/13 04:22:30;;;;;;;42.40;18.83;;;;;;;;;;4389445;32;20154;-76
2020/12/13 04:24:55;;;;;;;36.97;16.50;;;;;;;;;;4375869;32;20583;-76
2020/12/13 04:27:21;;;;;;;34.73;14.93;;;;;;;;;;4390595;32;20161;-78
2020/12/13 04:29:46;;;;;;;30.30;14.93;;;;;;;;;;4361544;32;20503;-77
2020/12/13 04:32:11;;;;;;;32.77;15.93;;;;;;;;;;4361059;32;20598;-77
2020/12/13 04:34:37;;;;;;;27.57;14.83;;;;;;;;;;4361397;32;20190;-77
2020/12/13 04:37:02;;;;;;;27.53;15.00;;;;;;;;;;4361305;32;20213;-77
2020/12/13 04:39:27;;;;;;;32.67;15.63;;;;;;;;;;4361274;32;20197;-77
2020/12/13 04:41:53;;;;;;;29.73;15.53;;;;;;;;;;4361073;32;20603;-77
2020/12/13 04:44:18;;;;;;;31.08;15.50;;;;;;;;;;4361668;32;20197;-77
2020/12/13 04:46:45;;;;;;;25.47;14.00;;;;;;;;;;4360928;32;20174;-77
2020/12/13 04:49:10;;;;;;;38.37;17.00;;;;;;;;;;4361241;32;20166;-77
2020/12/13 04:51:37;;;;;;;31.33;14.67;;;;;;;;;;4360888;32;20224;-77
2020/12/13 04:54:05;;;;;;;30.02;14.80;;;;;;;;;;4360771;32;20505;-76
2020/12/13 04:56:35;;;;;;;31.00;14.70;;;;;;;;;;4360846;32;20162;-77
2020/12/13 04:59:01;;;;;;;30.50;14.70;;;;;;;;;;4361505;32;20166;-77
2020/12/13 05:01:29;;;;;;;34.47;15.70;;;;;;;;;;4361166;32;20185;-77
2020/12/13 05:03:54;;;;;;;29.17;13.33;;;;;;;;;;4360729;32;20175;-77
2020/12/13 05:06:19;;;;;;;31.53;14.00;;;;;;;;;;4361834;32;20185;-76
2020/12/13 05:08:47;;;;;;;32.27;14.53;;;;;;;;;;4359765;32;20644;-76
2020/12/13 05:11:12;;;;;;;26.30;13.87;;;;;;;;;;4349551;33;20208;-77
2020/12/13 05:13:38;;;;;;;30.17;14.13;;;;;;;;;;4348571;33;20186;-77
2020/12/13 05:16:05;;;;;;;34.97;15.10;;;;;;;;;;4348714;33;20167;-77
2020/12/13 05:18:30;;;;;;;40.25;17.10;;;;;;;;;;4348518;33;20632;-77
2020/12/13 05:20:56;;;;;;;36.30;16.47;;;;;;;;;;4362268;32;20136;-77
2020/12/13 05:23:21;;;;;;;37.50;16.30;;;;;;;;;;4348899;33;20190;-77
2020/12/13 05:25:48;;;;;;;47.88;17.05;;;;;;;;;;4348881;33;20166;-77
2020/12/13 05:28:16;;;;;;;40.50;16.23;;;;;;;;;;4348355;33;20166;-77
2020/12/13 05:30:47;;;;;;;41.10;17.70;;;;;;;;;;4349430;33;20171;-76
2020/12/13 05:33:29;;;;;;;39.30;15.53;;;;;;;;;;4348905;33;20177;-76
2020/12/13 05:35:58;;;;;;;35.67;15.90;;;;;;;;;;4348762;33;20202;-77
2020/12/13 05:38:23;;;;;;;36.07;16.97;;;;;;;;;;4362776;32;20131;-77
2020/12/13 05:40:49;;;;;;;37.92;17.20;;;;;;;;;;4348867;33;20185;-77
2020/12/13 05:43:21;;;;;;;38.00;16.67;;;;;;;;;;4348285;33;20193;-77
2020/12/13 05:48:53;;;;;;;40.03;17.23;;;;;;;;;;4376904;32;20180;-77
2020/12/13 05:53:47;;;;;;;35.60;17.35;;;;;;;;;;4376814;32;20139;-76
2020/12/13 05:56:13;;;;;;;37.73;16.90;;;;;;;;;;4363314;32;20159;-76
2020/12/13 05:58:38;;;;;;;36.57;17.63;;;;;;;;;;4363406;32;20275;-76
2020/12/13 06:01:04;;;;;;;51.97;18.52;;;;;;;;;;4376486;32;20198;-76
2020/12/13 06:03:34;;;;;;;36.83;17.10;;;;;;;;;;4362809;32;20230;-76
2020/12/13 06:06:02;;;;;;;40.47;17.25;;;;;;;;;;4363003;32;20194;-76
2020/12/13 06:08:29;;;;;;;39.88;17.55;;;;;;;;;;4362717;32;20178;-76
2020/12/13 06:10:55;;;;;;;36.92;17.65;;;;;;;;;;4362724;32;20216;-76
2020/12/13 06:13:24;;;;;;;33.95;16.55;;;;;;;;;;4362817;32;20167;-76
2020/12/13 06:15:50;;;;;;;38.67;17.70;;;;;;;;;;4362807;32;20257;-77
2020/12/13 06:18:15;;;;;;;39.47;19.10;;;;;;;;;;4362701;32;20605;-76
2020/12/13 06:20:41;;;;;;;35.67;17.85;;;;;;;;;;4362730;32;20174;-76
2020/12/13 06:23:07;;;;;;;40.42;18.85;;;;;;;;;;4350113;32;20491;-76
2020/12/13 06:25:32;;;;;;;37.85;17.50;;;;;;;;;;4376178;32;20134;-77
2020/12/13 06:27:58;;;;;;;38.42;17.35;;;;;;;;;;4376059;32;20182;-76
2020/12/13 06:30:26;;;;;;;33.15;17.67;;;;;;;;;;4376495;32;20197;-76
2020/12/13 06:32:51;;;;;;;38.30;18.55;;;;;;;;;;4363093;32;20163;-77
2020/12/13 06:35:20;;;;;;;40.75;19.20;;;;;;;;;;4362686;32;20189;-77
2020/12/13 06:37:45;;;;;;;35.43;18.47;;;;;;;;;;4363088;32;20162;-77
2020/12/13 06:40:29;;;;;;;36.60;17.67;;;;;;;;;;4362870;32;20229;-77
2020/12/13 06:42:55;;;;;;;41.17;18.43;;;;;;;;;;4362530;32;20158;-77
2020/12/13 06:45:20;;;;;;;39.20;17.95;;;;;;;;;;4376945;32;20151;-77
2020/12/13 06:47:46;;;;;;;31.42;16.77;;;;;;;;;;4362605;32;20284;-77
2020/12/13 06:50:18;;;;;;;40.40;18.53;;;;;;;;;;4362213;32;20246;-76
2020/12/13 06:52:44;;;;;;;40.67;18.60;;;;;;;;;;4376386;32;20161;-77
2020/12/13 06:55:09;;;;;;;37.45;17.62;;;;;;;;;;4362074;32;20166;-76
2020/12/13 06:57:35;;;;;;;32.10;15.98;;;;;;;;;;4362640;32;20193;-77
2020/12/13 07:00:07;;;;;;;32.65;16.05;;;;;;;;;;4362150;32;20166;-77
2020/12/13 07:02:46;;;;;;;33.30;16.43;;;;;;;;;;4362275;32;20182;-77
2020/12/13 07:05:14;;;;;;;33.65;16.02;;;;;;;;;;4376387;32;20165;-76
2020/12/13 07:07:40;;;;;;;30.80;15.63;;;;;;;;;;4362101;32;20209;-77
2020/12/13 07:10:09;;;;;;;35.63;16.45;;;;;;;;;;4362268;32;20611;-77
2020/12/13 07:12:35;;;;;;;31.77;16.03;;;;;;;;;;4349995;32;20443;-77
2020/12/13 07:15:01;;;;;;;30.33;15.57;;;;;;;;;;4361751;32;20180;-77
2020/12/13 07:17:30;;;;;;;31.20;15.57;;;;;;;;;;4361843;32;20599;-77
2020/12/13 07:19:56;;;;;;;27.52;14.75;;;;;;;;;;4362242;32;20154;-77
2020/12/13 07:22:21;;;;;;;34.73;16.53;;;;;;;;;;4375495;32;20143;-77
2020/12/13 07:24:46;;;;;;;33.72;15.63;;;;;;;;;;4361735;32;20638;-77
2020/12/13 07:27:12;;;;;;;31.55;14.15;;;;;;;;;;4361773;32;20185;-77
2020/12/13 07:29:39;;;;;;;38.50;15.87;;;;;;;;;;4350830;32;20189;-77
2020/12/13 07:32:05;;;;;;;32.00;14.43;;;;;;;;;;4376991;32;20274;-77
2020/12/13 07:34:31;;;;;;;30.33;14.82;;;;;;;;;;4376770;32;20162;-76
2020/12/13 07:36:58;;;;;;;33.00;15.37;;;;;;;;;;4363602;32;20173;-76
2020/12/13 07:39:23;;;;;;;27.93;13.93;;;;;;;;;;4362272;32;20288;-76
2020/12/13 07:41:49;;;;;;;36.43;15.57;;;;;;;;;;4375674;32;20584;-76
2020/12/13 07:44:15;;;;;;;28.23;14.43;;;;;;;;;;4375279;32;20181;-76
2020/12/13 07:46:41;;;;;;;34.53;14.73;;;;;;;;;;4361333;32;20523;-77
2020/12/13 07:49:16;;;;;;;33.37;14.57;;;;;;;;;;4361423;32;20174;-77
2020/12/13 07:51:42;;;;;;;32.70;14.17;;;;;;;;;;4361436;32;20216;-76
2020/12/13 07:54:17;;;;;;;38.50;14.40;;;;;;;;;;4361337;32;20166;-78
2020/12/13 07:56:44;;;;;;;38.10;14.93;;;;;;;;;;4361541;32;20192;-77
2020/12/13 07:59:10;;;;;;;40.67;15.27;;;;;;;;;;4361208;32;20549;-78
2020/12/13 08:01:35;;;;;;;35.70;14.00;;;;;;;;;;4361248;32;20194;-78
2020/12/13 08:04:00;;;;;;;41.60;15.80;;;;;;;;;;4361222;32;20166;-77
2020/12/13 08:06:26;;;;;;;40.13;15.23;;;;;;;;;;4361384;32;20189;-77
2020/12/13 08:08:51;;;;;;;45.97;15.60;;;;;;;;;;4360983;32;20186;-77
2020/12/13 08:11:16;;;;;;;34.40;13.97;;;;;;;;;;4361901;32;20596;-77
2020/12/13 08:13:45;;;;;;;32.77;14.30;;;;;;;;;;4361192;32;20283;-77
2020/12/13 08:16:13;;;;;;;32.33;14.70;;;;;;;;;;4377737;32;20158;-77
2020/12/13 08:18:38;;;;;;;42.90;15.37;;;;;;;;;;4360982;32;20627;-77
2020/12/13 08:21:05;;;;;;;32.20;14.03;;;;;;;;;;4361445;32;20190;-76
2020/12/13 08:23:32;;;;;;;30.97;13.17;;;;;;;;;;4360535;32;20249;-76
2020/12/13 08:25:58;;;;;;;33.27;13.07;;;;;;;;;;4363352;32;20178;-77
2020/12/13 08:28:24;;;;;;;35.63;13.03;;;;;;;;;;4375891;32;20284;-77
2020/12/13 08:30:50;;;;;;;38.90;13.37;;;;;;;;;;4375753;32;20579;-77
2020/12/13 08:33:16;;;;;;;26.47;12.80;;;;;;;;;;4390086;32;20188;-76
2020/12/13 08:35:42;;;;;;;32.93;13.17;;;;;;;;;;4376595;32;20189;-76
2020/12/13 08:38:11;;;;;;;31.33;12.20;;;;;;;;;;4376396;32;20213;-76
2020/12/13 08:40:43;;;;;;;27.53;11.60;;;;;;;;;;4376002;32;20529;-76
2020/12/13 08:43:10;;;;;;;30.13;12.10;;;;;;;;;;4392668;32;20647;-77
2020/12/13 08:45:35;;;;;;;31.67;12.00;;;;;;;;;;4378740;32;20208;-77
2020/12/13 08:48:04;;;;;;;26.23;11.40;;;;;;;;;;4393601;32;20138;-78
2020/12/13 08:50:39;;;;;;;25.30;11.73;;;;;;;;;;4393244;32;20138;-78
2020/12/13 08:53:25;;;;;;;26.17;10.70;;;;;;;;;;4370953;32;20184;-78
2020/12/13 08:55:59;;;;;;;32.80;11.20;;;;;;;;;;4363873;32;20189;-78
2020/12/13 08:58:24;;;;;;;36.77;11.17;;;;;;;;;;4364141;32;20188;-78
2020/12/13 09:00:50;;;;;;;29.60;10.73;;;;;;;;;;4364062;32;20182;-78
2020/12/13 09:03:27;;;;;;;28.10;11.57;;;;;;;;;;4364569;32;20280;-78
2020/12/13 09:05:52;;;;;;;25.93;11.27;;;;;;;;;;4363981;32;20499;-77
2020/12/13 09:08:21;;;;;;;33.63;13.07;;;;;;;;;;4364038;32;20167;-78
2020/12/13 09:10:46;;;;;;;25.17;12.47;;;;;;;;;;4364562;32;20197;-77
2020/12/13 09:13:12;;;;;;;29.27;14.07;;;;;;;;;;4364277;32;20186;-77
2020/12/13 09:15:37;;;;;;;27.03;13.67;;;;;;;;;;4377283;32;20143;-77
2020/12/13 09:18:03;;;;;;;28.20;15.37;;;;;;;;;;4382397;32;20154;-77
2020/12/13 09:20:29;;;;;;;31.90;13.57;;;;;;;;;;4378169;32;20161;-78
2020/12/13 09:23:00;;;;;;;27.77;13.83;;;;;;;;;;4378442;32;20178;-78
2020/12/13 09:25:26;;;;;;;29.93;13.70;;;;;;;;;;4392059;32;20460;-77
2020/12/13 09:27:51;;;;;;;28.97;12.90;;;;;;;;;;4374875;32;20261;-76
2020/12/13 09:30:16;;;;;;;30.90;13.20;;;;;;;;;;4377227;32;20134;-76
2020/12/13 09:32:42;;;;;;;21.37;12.93;;;;;;;;;;4363872;32;20170;-77
2020/12/13 09:35:07;;;;;;;26.00;13.37;;;;;;;;;;4362988;32;20500;-77
2020/12/13 09:37:32;;;;;;;22.13;12.67;;;;;;;;;;4377035;32;20545;-77
2020/12/13 09:39:58;;;;;;;24.70;12.13;;;;;;;;;;4362944;32;20201;-77
2020/12/13 09:42:23;;;;;;;22.63;12.40;;;;;;;;;;4377526;32;20185;-77
2020/12/13 09:44:49;;;;;;;24.60;12.23;;;;;;;;;;4359296;32;20620;-77
2020/12/13 09:47:15;;;;;;;22.03;11.37;;;;;;;;;;4376471;32;20224;-77
2020/12/13 09:49:41;;;;;;;21.17;11.60;;;;;;;;;;4384545;32;20143;-77
2020/12/13 09:52:06;;;;;;;25.77;11.83;;;;;;;;;;4378105;32;20162;-77
2020/12/13 09:54:33;;;;;;;19.60;10.40;;;;;;;;;;4392305;32;20134;-77
2020/12/13 09:56:58;;;;;;;20.27;10.87;;;;;;;;;;4392425;32;20139;-77
2020/12/13 09:59:24;;;;;;;18.27;10.00;;;;;;;;;;4392006;32;20493;-77
2020/12/13 10:01:52;;;;;;;19.70;10.27;;;;;;;;;;4377540;32;20201;-77
2020/12/13 10:04:20;;;;;;;18.20;10.13;;;;;;;;;;4377686;32;20188;-77
2020/12/13 10:09:16;;;;;;;24.73;11.60;;;;;;;;;;4376992;32;20157;-77
2020/12/13 10:11:42;;;;;;;17.70;9.80;;;;;;;;;;4363286;32;20637;-78
2020/12/13 10:14:11;;;;;;;17.33;9.20;;;;;;;;;;4356248;32;20225;-77
2020/12/13 10:16:38;;;;;;;19.97;8.90;;;;;;;;;;4376625;32;20159;-77
2020/12/13 10:19:03;;;;;;;11.60;7.95;;;;;;;;;;4362931;32;20225;-77
2020/12/13 10:21:29;;;;;;;16.67;7.87;;;;;;;;;;4363162;32;20216;-77
2020/12/13 10:23:55;;;;;;;12.13;7.43;;;;;;;;;;4362678;32;20163;-77
2020/12/13 10:26:24;;;;;;;14.63;7.50;;;;;;;;;;4362896;32;20193;-77
2020/12/13 10:28:50;;;;;;;17.83;7.37;;;;;;;;;;4363473;32;20349;-77
2020/12/13 10:31:15;;;;;;;17.13;7.73;;;;;;;;;;4362774;32;20225;-77
2020/12/13 10:33:41;;;;;;;13.73;7.10;;;;;;;;;;4362694;32;20188;-77
2020/12/13 10:36:07;;;;;;;15.80;6.90;;;;;;;;;;4363013;32;20163;-77
2020/12/13 10:38:32;;;;;;;13.65;6.28;;;;;;;;;;4363137;32;20572;-78
2020/12/13 10:40:57;;;;;;;13.40;6.57;;;;;;;;;;4362500;32;20599;-78
2020/12/13 10:43:23;;;;;;;15.27;6.80;;;;;;;;;;4362400;32;20714;-77
2020/12/13 10:45:48;;;;;;;16.43;7.00;;;;;;;;;;4362307;32;20628;-77
2020/12/13 10:48:14;;;;;;;16.80;7.47;;;;;;;;;;4362107;32;20170;-77
2020/12/13 10:50:39;;;;;;;21.27;7.28;;;;;;;;;;4362359;32;20174;-78
2020/12/13 10:53:04;;;;;;;17.10;7.83;;;;;;;;;;4362397;32;20170;-77
2020/12/13 10:55:32;;;;;;;12.32;7.75;;;;;;;;;;4362170;32;20171;-77
2020/12/13 10:57:57;;;;;;;14.50;7.67;;;;;;;;;;4362736;32;20163;-77
2020/12/13 11:00:23;;;;;;;17.12;8.27;;;;;;;;;;4362214;32;20193;-77
2020/12/13 11:02:49;;;;;;;17.07;7.70;;;;;;;;;;4362175;32;20202;-78
2020/12/13 11:05:14;;;;;;;12.10;7.25;;;;;;;;;;4361293;32;20185;-77
2020/12/13 11:07:39;;;;;;;16.17;7.65;;;;;;;;;;4361951;32;20548;-78
2020/12/13 11:10:05;;;;;;;15.75;7.22;;;;;;;;;;4362219;32;20220;-78
2020/12/13 11:12:30;;;;;;;16.63;7.10;;;;;;;;;;4375728;32;20143;-78
2020/12/13 11:14:55;;;;;;;15.35;7.28;;;;;;;;;;4361750;32;20167;-78
2020/12/13 11:17:21;;;;;;;23.52;7.93;;;;;;;;;;4361876;32;20186;-78
2020/12/13 11:19:46;;;;;;;20.00;6.97;;;;;;;;;;4361669;32;20166;-78
2020/12/13 11:22:15;;;;;;;16.77;6.57;;;;;;;;;;4361730;32;20509;-77
2020/12/13 11:24:40;;;;;;;15.53;6.80;;;;;;;;;;4362366;32;20189;-78
2020/12/13 11:27:07;;;;;;;18.13;7.03;;;;;;;;;;4362286;32;20174;-78
2020/12/13 11:29:32;;;;;;;14.90;6.60;;;;;;;;;;4363026;32;20181;-78
2020/12/13 11:31:58;;;;;;;17.15;7.43;;;;;;;;;;4362803;32;20210;-78
2020/12/13 11:34:25;;;;;;;16.45;6.95;;;;;;;;;;4361785;32;20171;-79
2020/12/13 11:36:51;;;;;;;13.70;6.50;;;;;;;;;;4375619;32;20139;-79
2020/12/13 11:39:16;;;;;;;17.80;7.67;;;;;;;;;;4361601;32;20234;-79
2020/12/13 11:41:41;;;;;;;17.75;6.32;;;;;;;;;;4361708;32;20163;-79
2020/12/13 11:44:06;;;;;;;19.00;6.18;;;;;;;;;;4361662;32;20214;-79
2020/12/13 11:46:32;;;;;;;12.98;5.90;;;;;;;;;;4361947;32;20178;-79
2020/12/13 11:48:57;;;;;;;13.62;5.40;;;;;;;;;;4361617;32;20212;-78
2020/12/13 11:51:22;;;;;;;12.63;5.22;;;;;;;;;;4361424;32;20154;-79
2020/12/13 11:53:48;;;;;;;16.20;6.85;;;;;;;;;;4375470;32;20174;-79
2020/12/13 11:56:18;;;;;;;12.50;5.18;;;;;;;;;;4361572;32;20225;-79
2020/12/13 11:58:44;;;;;;;10.35;5.37;;;;;;;;;;4361554;32;20166;-79
2020/12/13 12:01:09;;;;;;;10.73;4.90;;;;;;;;;;4361475;32;20248;-79
2020/12/13 12:03:37;;;;;;;17.60;5.87;;;;;;;;;;4361291;32;20167;-78
2020/12/13 12:06:02;;;;;;;13.82;5.05;;;;;;;;;;4361020;32;20229;-79
2020/12/13 12:08:27;;;;;;;9.00;4.53;;;;;;;;;;4361540;32;20154;-80
2020/12/13 12:10:56;;;;;;;10.32;5.00;;;;;;;;;;4361210;32;20158;-79
2020/12/13 12:13:25;;;;;;;16.12;5.82;;;;;;;;;;4361914;32;20221;-78
2020/12/13 12:15:50;;;;;;;11.30;4.80;;;;;;;;;;4361075;32;20170;-79
2020/12/13 12:18:15;;;;;;;12.00;4.70;;;;;;;;;;4361289;32;20170;-79
2020/12/13 12:20:41;;;;;;;12.07;4.35;;;;;;;;;;4360923;32;20507;-79
2020/12/13 12:23:07;;;;;;;11.70;4.03;;;;;;;;;;4360661;32;20167;-79
2020/12/13 12:25:35;;;;;;;14.07;4.53;;;;;;;;;;4360618;32;20166;-79
2020/12/13 12:28:00;;;;;;;12.68;4.37;;;;;;;;;;4360563;32;20171;-79
2020/12/13 12:30:26;;;;;;;8.23;4.25;;;;;;;;;;4360609;32;20200;-79
2020/12/13 12:32:51;;;;;;;10.48;3.85;;;;;;;;;;4360941;32;20163;-79
2020/12/13 12:35:16;;;;;;;11.27;3.85;;;;;;;;;;4361232;32;20193;-80
2020/12/13 12:37:42;;;;;;;12.37;4.43;;;;;;;;;;4356526;32;20233;-80
2020/12/13 12:40:09;;;;;;;12.57;4.65;;;;;;;;;;4358292;32;20171;-79
2020/12/13 12:42:35;;;;;;;11.52;4.47;;;;;;;;;;4369238;32;20192;-79
2020/12/13 12:45:02;;;;;;;11.60;4.45;;;;;;;;;;4371267;32;20214;-79
2020/12/13 12:47:27;;;;;;;14.10;4.93;;;;;;;;;;4368313;32;20604;-79
2020/12/13 12:49:52;;;;;;;15.40;4.93;;;;;;;;;;4360907;32;20193;-79
2020/12/13 12:52:19;;;;;;;14.73;5.18;;;;;;;;;;4356629;32;20198;-79
2020/12/13 12:54:47;;;;;;;11.48;4.85;;;;;;;;;;4360031;32;20159;-79
2020/12/13 12:57:13;;;;;;;11.18;4.90;;;;;;;;;;4373953;32;20150;-79
2020/12/13 13:00:08;;;;;;;10.63;4.68;;;;;;;;;;4376679;32;20265;-79
2020/12/13 13:02:26;;;;;;;18.52;5.53;;;;;;;;;;4372990;32;20167;-81
2020/12/13 13:05:39;;;;;;;14.75;5.62;;;;;;;;;;4360861;32;20220;-81
2020/12/13 13:07:43;;;;;;;11.50;5.70;;;;;;;;;;4369595;32;20222;-81
2020/12/13 13:10:21;;;;;;;12.20;5.25;;;;;;;;;;4360468;32;20208;-81
2020/12/13 13:12:47;;;;;;;15.52;7.03;;;;;;;;;;4374874;32;20508;-81
2020/12/13 13:15:17;;;;;;;19.00;6.03;;;;;;;;;;4360776;32;20159;-81
2020/12/13 13:17:49;;;;;;;13.50;5.57;;;;;;;;;;4374527;32;20193;-79
2020/12/13 13:20:14;;;;;;;14.13;4.82;;;;;;;;;;4360352;32;20158;-79
2020/12/13 13:22:39;;;;;;;17.12;5.60;;;;;;;;;;4359417;32;20593;-80
2020/12/13 13:25:04;;;;;;;14.20;5.62;;;;;;;;;;4357408;32;20174;-79
2020/12/13 13:27:30;;;;;;;12.85;5.70;;;;;;;;;;4360701;32;20181;-81
2020/12/13 13:29:55;;;;;;;12.65;5.70;;;;;;;;;;4362675;32;20163;-80
2020/12/13 13:32:20;;;;;;;14.95;5.18;;;;;;;;;;4363264;32;20510;-79
2020/12/13 13:34:46;;;;;;;11.95;5.80;;;;;;;;;;4363393;32;20159;-79
2020/12/13 13:37:12;;;;;;;13.55;5.72;;;;;;;;;;4363209;32;20185;-80
2020/12/13 13:39:37;;;;;;;12.98;5.53;;;;;;;;;;4363473;32;20699;-80
2020/12/13 13:42:04;;;;;;;11.00;5.25;;;;;;;;;;4368582;32;20195;-79
2020/12/13 13:44:37;;;;;;;14.15;5.62;;;;;;;;;;4362596;32;20206;-80
2020/12/13 13:47:28;;;;;;;11.00;4.62;;;;;;;;;;4362696;32;20201;-79
2020/12/13 13:50:01;;;;;;;13.40;5.47;;;;;;;;;;4363285;32;20505;-80
2020/12/13 13:52:30;;;;;;;14.05;5.57;;;;;;;;;;4363187;32;20158;-79
2020/12/13 13:55:03;;;;;;;12.63;4.80;;;;;;;;;;4362923;32;20162;-78
2020/12/13 13:57:31;;;;;;;13.02;4.87;;;;;;;;;;4363259;32;20159;-79
2020/12/13 14:00:04;;;;;;;11.63;5.32;;;;;;;;;;4362950;32;20163;-79
2020/12/13 14:02:29;;;;;;;10.63;5.10;;;;;;;;;;4352190;32;20261;-79
2020/12/13 14:04:55;;;;;;;11.85;5.28;;;;;;;;;;4350979;32;20634;-79
2020/12/13 14:07:50;;;;;;;10.05;4.95;;;;;;;;;;4363039;32;20194;-79
2020/12/13 14:10:16;;;;;;;11.48;4.93;;;;;;;;;;4362640;32;20159;-80
2020/12/13 14:12:41;;;;;;;14.23;4.93;;;;;;;;;;4363280;32;20158;-79
2020/12/13 14:15:06;;;;;;;13.60;4.90;;;;;;;;;;4362473;32;20272;-79
2020/12/13 14:17:33;;;;;;;10.15;4.35;;;;;;;;;;4362769;32;20242;-80
2020/12/13 14:19:59;;;;;;;12.30;4.45;;;;;;;;;;4363126;32;20162;-79
2020/12/13 14:22:24;;;;;;;10.80;4.75;;;;;;;;;;4362157;32;20193;-79
2020/12/13 14:24:49;;;;;;;10.83;4.67;;;;;;;;;;4362609;32;20213;-79
2020/12/13 14:27:22;;;;;;;13.53;4.40;;;;;;;;;;4362497;32;20181;-79